createdAt,value
2023-02-09T00:00:57.809Z,99.50
2023-02-09T00:03:47.113Z,98.50
2023-02-09T00:06:29.971Z,97.90
2023-02-09T00:09:18.933Z,98.10
2023-02-09T00:12:25.969Z,97.70
2023-02-09T00:15:08.175Z,97.70
2023-02-09T00:17:56.005Z,97.40
2023-02-09T00:20:38.718Z,97.10
2023-02-09T00:23:27.036Z,96.90
2023-02-09T00:26:09.205Z,96.90
2023-02-09T00:29:00.931Z,96.90
2023-02-09T00:31:43.196Z,96.40
2023-02-09T00:34:31.024Z,96.50
2023-02-09T00:37:20.934Z,96.50
2023-02-09T00:40:02.833Z,96.90
2023-02-09T00:42:51.920Z,97.00
2023-02-09T00:45:35.344Z,96.80
2023-02-09T00:48:24.003Z,97.40
2023-02-09T00:51:07.037Z,97.60
2023-02-09T00:53:55.934Z,97.80
2023-02-09T00:56:37.875Z,98.00
2023-02-09T00:59:27.953Z,97.90
2023-02-09T01:02:12.324Z,97.00
2023-02-09T01:05:01.107Z,97.90
2023-02-09T01:07:49.010Z,98.50
2023-02-09T01:10:31.202Z,97.90
2023-02-09T01:13:19.994Z,97.80
2023-02-09T01:16:02.176Z,98.30
2023-02-09T01:18:51.933Z,98.00
2023-02-09T01:21:34.168Z,97.80
2023-02-09T01:24:22.908Z,97.90
2023-02-09T01:27:05.243Z,98.10
2023-02-09T01:29:53.930Z,98.30
2023-02-09T01:32:42.927Z,98.60
2023-02-09T01:35:26.295Z,98.40
2023-02-09T01:38:15.009Z,98.60
2023-02-09T01:40:56.911Z,99.30
2023-02-09T01:44:08.011Z,99.70
2023-02-09T01:46:49.892Z,99.90
2023-02-09T01:49:41.955Z,99.30
2023-02-09T01:52:29.888Z,99.40
2023-02-09T01:55:21.980Z,99.90
2023-02-09T01:58:14.958Z,99.90
2023-02-09T02:01:00.040Z,99.90
2023-02-09T02:03:48.960Z,99.00
2023-02-09T02:06:31.227Z,98.70
2023-02-09T02:09:24.996Z,98.90
2023-02-09T02:12:07.197Z,98.30
2023-02-09T02:14:56.026Z,98.60
2023-02-09T02:17:57.128Z,98.70
2023-02-09T02:21:29.987Z,98.60
2023-02-09T02:24:45.037Z,98.70
2023-02-09T02:27:48.966Z,98.70
2023-02-09T02:30:51.043Z,99.80
2023-02-09T02:33:43.197Z,99.80
2023-02-09T02:36:39.407Z,99.30
2023-02-09T02:39:30.170Z,99.40
2023-02-09T02:42:40.953Z,99.60
2023-02-09T02:45:31.149Z,99.90
2023-02-09T02:48:32.008Z,99.90
2023-02-09T02:51:19.193Z,99.90
2023-02-09T02:54:13.049Z,99.90
2023-02-09T02:57:05.983Z,99.90
2023-02-09T03:00:03.111Z,99.90
2023-02-09T03:02:54.015Z,99.90
2023-02-09T03:05:36.200Z,99.90
2023-02-09T03:08:25.955Z,99.90
2023-02-09T03:11:09.447Z,99.90
2023-02-09T03:14:19.001Z,99.90
2023-02-09T03:17:14.584Z,99.90
2023-02-09T03:20:08.954Z,99.90
2023-02-09T03:22:57.583Z,99.90
2023-02-09T03:25:51.999Z,99.90
2023-02-09T03:28:43.048Z,99.90
2023-02-09T03:31:25.425Z,99.90
2023-02-09T03:34:13.940Z,99.90
2023-02-09T03:36:59.270Z,99.90
2023-02-09T03:39:47.964Z,99.90
2023-02-09T03:42:31.174Z,99.90
2023-02-09T03:45:19.992Z,99.90
2023-02-09T03:48:02.198Z,99.90
2023-02-09T03:50:50.072Z,99.90
2023-02-09T03:53:32.170Z,99.90
2023-02-09T03:56:20.998Z,99.90
2023-02-09T03:59:04.229Z,99.90
2023-02-09T04:01:47.007Z,99.90
2023-02-09T04:04:35.971Z,99.90
2023-02-09T04:07:18.166Z,99.90
2023-02-09T04:10:06.012Z,99.90
2023-02-09T04:12:49.292Z,99.90
2023-02-09T04:15:39.402Z,99.90
2023-02-09T04:18:21.239Z,99.90
2023-02-09T04:21:10.045Z,99.90
2023-02-09T04:23:52.198Z,99.90
2023-02-09T04:26:40.977Z,99.90
2023-02-09T04:29:30.034Z,99.90
2023-02-09T04:32:13.311Z,99.90
2023-02-09T04:35:02.078Z,99.90
2023-02-09T04:37:44.055Z,99.90
2023-02-09T04:40:33.018Z,99.90
2023-02-09T04:43:15.133Z,99.90
2023-02-09T04:46:04.024Z,99.90
2023-02-09T04:48:47.625Z,99.90
2023-02-09T04:51:36.021Z,99.90
2023-02-09T04:54:17.994Z,99.90
2023-02-09T04:57:20.972Z,99.90
2023-02-09T05:00:09.093Z,99.90
2023-02-09T05:02:51.258Z,99.90
2023-02-09T05:05:41.047Z,99.90
2023-02-09T05:08:23.167Z,99.90
2023-02-09T05:11:10.998Z,99.90
2023-02-09T05:13:53.320Z,99.90
2023-02-09T05:16:41.058Z,99.90
2023-02-09T05:19:23.228Z,99.90
2023-02-09T05:22:13.061Z,99.90
2023-02-09T05:25:02.051Z,99.90
2023-02-09T05:27:57.030Z,99.90
2023-02-09T05:30:46.291Z,99.90
2023-02-09T05:33:28.440Z,99.90
2023-02-09T05:36:19.073Z,99.90
2023-02-09T05:39:02.367Z,99.90
2023-02-09T05:42:08.196Z,99.90
2023-02-09T05:44:50.429Z,99.90
2023-02-09T05:47:39.329Z,99.90
2023-02-09T05:50:28.150Z,99.90
2023-02-09T05:53:15.326Z,99.90
2023-02-09T05:56:05.020Z,99.90
2023-02-09T05:58:47.046Z,99.90
2023-02-09T06:01:36.013Z,99.90
2023-02-09T06:04:18.038Z,99.90
2023-02-09T06:07:07.080Z,99.90
2023-02-09T06:09:49.061Z,99.90
2023-02-09T06:12:41.289Z,99.90
2023-02-09T06:15:23.185Z,99.90
2023-02-09T06:18:12.008Z,99.90
2023-02-09T06:21:01.104Z,99.90
2023-02-09T06:23:43.312Z,99.90
2023-02-09T06:26:32.020Z,99.90
2023-02-09T06:29:16.315Z,99.90
2023-02-09T06:32:04.135Z,99.90
2023-02-09T06:34:46.252Z,99.90
2023-02-09T06:37:35.037Z,99.90
2023-02-09T06:40:18.198Z,99.90
2023-02-09T06:43:06.050Z,99.90
2023-02-09T06:45:57.059Z,99.90
2023-02-09T06:48:39.513Z,99.90
2023-02-09T06:51:30.096Z,99.90
2023-02-09T06:54:11.589Z,99.90
2023-02-09T06:57:00.034Z,99.90
2023-02-09T07:00:03.083Z,99.90
2023-02-09T07:02:53.074Z,99.90
2023-02-09T07:05:35.335Z,99.90
2023-02-09T07:08:23.010Z,99.90
2023-02-09T07:11:12.025Z,99.90
2023-02-09T07:13:53.908Z,99.90
2023-02-09T07:16:43.065Z,99.90
2023-02-09T07:19:26.407Z,99.90
2023-02-09T07:22:15.096Z,99.90
2023-02-09T07:24:57.150Z,99.90
2023-02-09T07:27:46.122Z,99.90
2023-02-09T07:30:28.135Z,99.90
2023-02-09T07:33:17.001Z,99.90
2023-02-09T07:36:07.098Z,99.90
2023-02-09T07:38:49.237Z,99.90
2023-02-09T07:41:37.091Z,99.90
2023-02-09T07:44:19.288Z,99.90
2023-02-09T07:47:07.107Z,99.90
2023-02-09T07:49:49.180Z,99.90
2023-02-09T07:52:39.559Z,99.90
2023-02-09T07:55:21.334Z,99.90
2023-02-09T07:58:09.072Z,99.90
2023-02-09T08:00:51.259Z,99.90
2023-02-09T08:03:42.126Z,99.90
2023-02-09T08:06:41.410Z,99.90
2023-02-09T08:09:26.080Z,99.90
2023-02-09T08:12:19.194Z,99.90
2023-02-09T08:15:01.476Z,99.90
2023-02-09T08:17:51.126Z,99.90
2023-02-09T08:20:33.950Z,99.90
2023-02-09T08:23:27.078Z,99.90
2023-02-09T08:26:27.111Z,99.90
2023-02-09T08:29:17.056Z,99.90
2023-02-09T08:32:07.193Z,99.90
2023-02-09T08:34:49.044Z,99.90
2023-02-09T08:37:38.120Z,99.90
2023-02-09T08:40:20.346Z,99.90
2023-02-09T08:43:10.160Z,99.90
2023-02-09T08:45:52.795Z,99.90
2023-02-09T08:48:41.052Z,99.90
2023-02-09T08:51:23.093Z,99.90
2023-02-09T08:54:12.042Z,99.90
2023-02-09T08:56:54.002Z,99.90
2023-02-09T08:59:44.080Z,99.90
2023-02-09T09:02:33.172Z,99.90
2023-02-09T09:05:15.235Z,99.90
2023-02-09T09:08:03.057Z,99.90
2023-02-09T09:10:45.327Z,99.90
2023-02-09T09:13:34.062Z,99.90
2023-02-09T09:16:22.359Z,99.90
2023-02-09T09:19:12.125Z,99.90
2023-02-09T09:21:54.222Z,99.90
2023-02-09T09:24:47.055Z,99.90
2023-02-09T09:27:43.074Z,99.90
2023-02-09T09:30:25.095Z,99.90
2023-02-09T09:33:16.287Z,99.90
2023-02-09T09:36:00.779Z,99.90
2023-02-09T09:38:50.082Z,99.90
2023-02-09T09:41:36.485Z,99.90
2023-02-09T09:44:30.056Z,99.90
2023-02-09T09:47:20.450Z,99.90
2023-02-09T09:50:10.088Z,99.90
2023-02-09T09:53:10.061Z,99.90
2023-02-09T09:55:56.477Z,99.90
2023-02-09T09:58:47.045Z,99.90
2023-02-09T10:01:32.457Z,99.90
2023-02-09T10:04:28.129Z,99.90
2023-02-09T10:07:19.577Z,99.90
2023-02-09T10:10:13.098Z,99.90
2023-02-09T10:12:56.970Z,99.90
2023-02-09T10:15:48.205Z,99.90
2023-02-09T10:18:33.219Z,99.90
2023-02-09T10:21:25.153Z,99.90
2023-02-09T10:24:23.177Z,99.90
2023-02-09T10:27:28.044Z,99.90
2023-02-09T10:30:28.193Z,99.90
2023-02-09T10:33:10.398Z,99.90
2023-02-09T10:36:01.140Z,99.90
2023-02-09T10:38:49.334Z,99.90
2023-02-09T10:41:41.124Z,99.90
2023-02-09T10:44:29.360Z,99.90
2023-02-09T10:47:19.126Z,99.90
2023-02-09T10:50:03.302Z,99.90
2023-02-09T10:53:02.077Z,99.90
2023-02-09T10:55:53.113Z,99.90
2023-02-09T10:58:39.527Z,99.90
2023-02-09T11:01:34.171Z,99.90
2023-02-09T11:04:21.850Z,99.90
2023-02-09T11:07:13.134Z,99.90
2023-02-09T11:09:56.575Z,99.90
2023-02-09T11:12:45.074Z,99.90
2023-02-09T11:15:41.905Z,99.90
2023-02-09T11:18:39.567Z,99.90
2023-02-09T11:21:38.145Z,99.90
2023-02-09T11:24:28.370Z,99.90
2023-02-09T11:27:30.156Z,99.90
2023-02-09T11:30:24.402Z,99.90
2023-02-09T11:33:22.171Z,99.90
2023-02-09T11:36:20.296Z,99.90
2023-02-09T11:39:12.079Z,98.70
2023-02-09T11:42:18.163Z,97.20
2023-02-09T11:45:10.194Z,96.60
2023-02-09T11:48:08.305Z,96.90
2023-02-09T11:51:09.085Z,96.70
2023-02-09T11:53:56.272Z,96.80
2023-02-09T11:56:48.151Z,97.30
2023-02-09T11:59:36.368Z,98.20
2023-02-09T12:02:38.174Z,99.10
2023-02-09T12:05:31.172Z,99.90
2023-02-09T12:08:43.940Z,99.90
2023-02-09T12:11:45.149Z,99.90
2023-02-09T12:14:48.399Z,99.90
2023-02-09T12:17:42.326Z,99.90
2023-02-09T12:20:30.554Z,99.90
2023-02-09T12:23:30.179Z,99.90
2023-02-09T12:27:01.109Z,99.90
2023-02-09T12:29:51.150Z,99.90
2023-02-09T12:32:49.413Z,99.90
2023-02-09T12:35:48.108Z,99.90
2023-02-09T12:38:30.390Z,99.90
2023-02-09T12:41:19.113Z,99.90
2023-02-09T12:44:33.369Z,99.90
2023-02-09T12:47:51.215Z,99.90
2023-02-09T12:50:49.199Z,99.90
2023-02-09T12:53:42.183Z,99.90
2023-02-09T12:56:48.207Z,99.90
2023-02-09T12:59:30.106Z,99.90
2023-02-09T13:02:28.187Z,99.90
2023-02-09T13:05:22.108Z,99.90
2023-02-09T13:08:13.404Z,99.90
2023-02-09T13:11:07.133Z,99.90
2023-02-09T13:14:02.081Z,99.90
2023-02-09T13:17:07.836Z,99.90
2023-02-09T13:20:42.120Z,99.90
2023-02-09T13:23:42.953Z,99.90
2023-02-09T13:26:36.175Z,99.90
2023-02-09T13:29:26.440Z,99.90
2023-02-09T13:32:27.111Z,99.90
2023-02-09T13:35:20.369Z,99.90
2023-02-09T13:38:12.118Z,99.90
2023-02-09T13:40:55.467Z,99.90
2023-02-09T13:43:47.123Z,99.90
2023-02-09T13:46:32.151Z,99.90
2023-02-09T13:49:26.142Z,99.90
2023-02-09T13:52:20.154Z,99.90
2023-02-09T13:55:03.892Z,99.90
2023-02-09T13:57:53.222Z,99.90
2023-02-09T14:00:37.419Z,99.90
2023-02-09T14:03:29.187Z,99.90
2023-02-09T14:06:19.048Z,99.90
2023-02-09T14:09:10.132Z,99.90
2023-02-09T14:11:57.279Z,99.90
2023-02-09T14:15:07.173Z,99.90
2023-02-09T14:17:58.378Z,99.90
2023-02-09T14:20:49.143Z,99.90
2023-02-09T14:23:35.073Z,99.90
2023-02-09T14:26:33.151Z,99.90
2023-02-09T14:29:33.136Z,99.90
2023-02-09T14:32:33.400Z,99.90
2023-02-09T14:35:33.134Z,99.90
2023-02-09T14:38:42.683Z,99.90
2023-02-09T14:41:43.196Z,99.90
2023-02-09T14:44:26.906Z,99.90
2023-02-09T14:47:16.216Z,99.90
2023-02-09T14:49:58.684Z,99.90
2023-02-09T14:52:47.316Z,99.90
2023-02-09T14:55:37.151Z,99.90
2023-02-09T14:58:27.356Z,99.90
2023-02-09T15:01:17.308Z,99.90
2023-02-09T15:03:59.336Z,99.90
2023-02-09T15:06:50.170Z,99.90
2023-02-09T15:09:41.771Z,99.90
2023-02-09T15:12:35.243Z,99.90
2023-02-09T15:15:22.403Z,99.90
2023-02-09T15:18:12.149Z,99.90
2023-02-09T15:20:54.354Z,99.90
2023-02-09T15:23:43.142Z,99.90
2023-02-09T15:26:34.214Z,99.90
2023-02-09T15:29:31.168Z,99.90
2023-02-09T15:32:23.237Z,99.90
2023-02-09T15:35:06.445Z,99.90
2023-02-09T15:37:57.313Z,99.90
2023-02-09T15:40:59.428Z,99.90
2023-02-09T15:44:20.164Z,99.90
2023-02-09T15:47:26.259Z,99.90
2023-02-09T15:50:10.237Z,99.90
2023-02-09T15:52:59.204Z,99.90
2023-02-09T15:55:43.074Z,99.90
2023-02-09T15:58:36.169Z,99.90
2023-02-09T16:01:19.362Z,99.90
2023-02-09T16:04:15.376Z,99.90
2023-02-09T16:07:01.553Z,99.90
2023-02-09T16:09:50.244Z,99.90
2023-02-09T16:12:45.206Z,99.90
2023-02-09T16:15:28.413Z,99.90
2023-02-09T16:18:17.251Z,99.90
2023-02-09T16:20:59.350Z,99.90
2023-02-09T16:23:50.213Z,99.90
2023-02-09T16:26:33.483Z,99.90
2023-02-09T16:29:26.173Z,99.90
2023-02-09T16:32:15.771Z,99.90
2023-02-09T16:35:16.393Z,99.90
2023-02-09T16:38:06.187Z,99.90
2023-02-09T16:40:50.430Z,99.90
2023-02-09T16:43:38.276Z,99.90
2023-02-09T16:46:21.514Z,99.90
2023-02-09T16:49:10.234Z,99.90
2023-02-09T16:51:52.415Z,99.90
2023-02-09T16:54:49.222Z,99.90
2023-02-09T16:57:34.408Z,99.90
2023-02-09T17:00:24.282Z,99.90
2023-02-09T17:03:15.037Z,99.90
2023-02-09T17:06:05.181Z,99.90
2023-02-09T17:08:55.216Z,99.90
2023-02-09T17:11:37.217Z,99.90
2023-02-09T17:14:27.228Z,99.90
2023-02-09T17:17:11.292Z,99.90
2023-02-09T17:20:01.207Z,99.90
2023-02-09T17:22:43.559Z,99.90
2023-02-09T17:25:33.341Z,99.90
2023-02-09T17:28:29.347Z,99.90
2023-02-09T17:31:25.289Z,99.90
2023-02-09T17:34:15.241Z,99.90
2023-02-09T17:36:57.881Z,99.90
2023-02-09T17:39:46.232Z,99.90
2023-02-09T17:42:28.278Z,99.90
2023-02-09T17:45:17.259Z,99.90
2023-02-09T17:48:02.319Z,99.90
2023-02-09T17:50:52.234Z,99.90
2023-02-09T17:53:35.880Z,99.90
2023-02-09T17:56:25.273Z,99.90
2023-02-09T17:59:08.297Z,99.90
2023-02-09T18:02:01.266Z,99.90
2023-02-09T18:04:51.245Z,99.90
2023-02-09T18:07:33.480Z,99.90
2023-02-09T18:10:22.323Z,99.90
2023-02-09T18:13:04.459Z,99.90
2023-02-09T18:15:54.235Z,99.90
2023-02-09T18:18:36.521Z,99.90
2023-02-09T18:21:26.338Z,99.90
2023-02-09T18:24:09.624Z,99.90
2023-02-09T18:26:58.216Z,99.90
2023-02-09T18:29:49.634Z,99.90
2023-02-09T18:32:32.307Z,99.90
2023-02-09T18:35:27.267Z,99.90
2023-02-09T18:38:11.392Z,99.90
2023-02-09T18:41:00.248Z,99.90
2023-02-09T18:43:44.717Z,99.90
2023-02-09T18:46:33.250Z,99.90
2023-02-09T18:49:17.550Z,99.90
2023-02-09T18:52:09.283Z,99.90
2023-02-09T18:54:52.447Z,99.90
2023-02-09T18:57:40.782Z,99.90
2023-02-09T19:00:31.317Z,99.90
2023-02-09T19:03:17.657Z,99.90
2023-02-09T19:06:06.295Z,99.90
2023-02-09T19:08:50.203Z,99.90
2023-02-09T19:11:41.275Z,99.90
2023-02-09T19:14:40.763Z,99.90
2023-02-09T19:17:31.226Z,99.90
2023-02-09T19:20:17.452Z,99.90
2023-02-09T19:23:06.276Z,99.90
2023-02-09T19:26:01.325Z,99.90
2023-02-09T19:28:58.304Z,99.90
2023-02-09T19:31:47.328Z,99.90
2023-02-09T19:34:29.506Z,99.90
2023-02-09T19:37:20.239Z,99.90
2023-02-09T19:40:07.246Z,99.90
2023-02-09T19:42:56.270Z,99.90
2023-02-09T19:45:41.003Z,99.90
2023-02-09T19:48:28.207Z,99.90
2023-02-09T19:51:17.465Z,99.90
2023-02-09T19:53:59.253Z,99.90
2023-02-09T19:56:49.327Z,99.90
2023-02-09T19:59:31.423Z,99.90
2023-02-09T20:02:22.237Z,99.90
2023-02-09T20:05:04.256Z,99.90
2023-02-09T20:07:55.355Z,99.90
2023-02-09T20:10:40.895Z,99.90
2023-02-09T20:13:29.281Z,99.90
2023-02-09T20:16:12.796Z,99.90
2023-02-09T20:19:02.302Z,99.90
2023-02-09T20:21:51.259Z,99.90
2023-02-09T20:24:38.023Z,99.90
2023-02-09T20:27:26.319Z,99.90
2023-02-09T20:30:15.510Z,99.90
2023-02-09T20:32:57.334Z,99.90
2023-02-09T20:35:44.107Z,99.90
2023-02-09T20:38:33.238Z,99.90
2023-02-09T20:41:19.975Z,99.90
2023-02-09T20:44:25.314Z,99.90
2023-02-09T20:47:07.378Z,99.90
2023-02-09T20:49:56.268Z,99.90
2023-02-09T20:52:47.290Z,99.90
2023-02-09T20:55:29.508Z,99.90
2023-02-09T20:58:20.270Z,99.90
2023-02-09T21:01:05.000Z,99.90
2023-02-09T21:03:53.254Z,99.90
2023-02-09T21:06:37.006Z,99.90
2023-02-09T21:09:32.275Z,99.90
2023-02-09T21:12:14.535Z,99.90
2023-02-09T21:15:03.296Z,99.90
2023-02-09T21:17:48.444Z,99.90
2023-02-09T21:20:38.253Z,99.90
2023-02-09T21:23:27.233Z,99.90
2023-02-09T21:26:13.922Z,99.90
2023-02-09T21:29:02.318Z,99.90
2023-02-09T21:31:44.809Z,99.90
2023-02-09T21:34:33.269Z,99.90
2023-02-09T21:37:15.234Z,99.90
2023-02-09T21:40:08.337Z,99.90
2023-02-09T21:42:51.964Z,99.90
2023-02-09T21:45:40.620Z,99.90
2023-02-09T21:48:28.232Z,99.90
2023-02-09T21:51:10.514Z,99.90
2023-02-09T21:53:59.233Z,99.90
2023-02-09T21:56:41.925Z,99.90
2023-02-09T21:59:31.276Z,99.90
2023-02-09T22:02:14.663Z,99.90
2023-02-09T22:05:03.344Z,99.90
2023-02-09T22:07:49.802Z,99.90
2023-02-09T22:10:37.283Z,99.90
2023-02-09T22:13:26.333Z,99.90
2023-02-09T22:16:11.272Z,99.90
2023-02-09T22:19:00.252Z,99.90
2023-02-09T22:21:42.531Z,99.90
2023-02-09T22:24:32.300Z,99.90
2023-02-09T22:27:14.160Z,99.90
2023-02-09T22:30:03.250Z,99.90
2023-02-09T22:32:46.782Z,99.90
2023-02-09T22:35:35.321Z,99.90
2023-02-09T22:38:17.347Z,99.90
2023-02-09T22:41:06.246Z,99.90
2023-02-09T22:43:55.331Z,99.90
2023-02-09T22:46:41.539Z,99.90
2023-02-09T22:49:31.317Z,99.90
2023-02-09T22:52:13.482Z,99.90
2023-02-09T22:55:01.313Z,99.90
2023-02-09T22:57:43.536Z,99.90
2023-02-09T23:00:33.348Z,99.90
2023-02-09T23:03:15.511Z,99.90
2023-02-09T23:06:05.263Z,99.90
2023-02-09T23:08:55.290Z,99.90
2023-02-09T23:11:37.578Z,99.90
2023-02-09T23:14:26.279Z,99.90
2023-02-09T23:17:08.303Z,99.90
2023-02-09T23:19:57.330Z,99.90
2023-02-09T23:22:40.918Z,99.90
2023-02-09T23:25:31.334Z,99.90
2023-02-09T23:28:27.330Z,99.90
2023-02-09T23:31:19.288Z,99.90
2023-02-09T23:34:01.510Z,99.90
2023-02-09T23:36:50.340Z,99.90
2023-02-09T23:39:40.766Z,99.90
2023-02-09T23:42:22.296Z,99.90
2023-02-09T23:45:11.354Z,99.90
2023-02-09T23:47:53.235Z,99.90
2023-02-09T23:50:42.266Z,99.90
2023-02-09T23:53:24.285Z,99.90
2023-02-09T23:56:14.291Z,99.90
2023-02-09T23:58:56.543Z,99.90
